NCAR-RAP Real-Time Weather Data

Output produced by METARs form (02 September 2015  08:29 UTC)
found at http://weather.rap.ucar.edu/surface/
 
Conditions at: K4O4 observed 02 September 2015  08:15 UTC
Temperature: 21.0°C (70°F)
Dewpoint: 18.0°C (64°F) [RH = 83%]
Pressure (altimeter): 30.06 inches Hg (1018.0 mb)
Winds: from the SSE (150 degrees) at 5 MPH (4 knots; 2.1 m/s)
Visibility: 10 or more miles (16+ km)
Ceiling: at least 12,000 feet AGL
Clouds: sky clear below 12,000 feet AGL
Present Weather: automated observation with no human augmentation;
there may or may not be significant weather present at this time
K4O4 020815Z AUTO 15004KT 10SM CLR 21/18 A3006 RMK AO2